Rices Crossing, Texas
Current Conditions -  °F | °C
As of 10:58 AM on Saturday 25 Oct 2014 (Local Time) from KGRK Reporting Station
Clear Clear  
Wind Chill: 75°   Ceiling: Unl
Heat Index: 75°   Visibility: 10mi
Dew Point: 60°   Wind: 8mph
Humidity: 58%   Direction: 230°SW
Pressure: 30.19"   Gusts: NA
Location:  30.5793°N, 97.5096°W
Report Text: KGRK 251558Z AUTO 23007KT 10SM CLR 24/15 A3019 RMK AO2 SLP216 T02390153
Loading
Personal Weather Stations






























Interactive Weather Map New forecast layout! Learn more

10-Day Weather Forecast

Advertisements
Track Severe Weather on mobile